Joetsu, Japan
Current Conditions -  °F | °C
As of 10:00 AM on Sunday 26 Oct 2014 (Local Time) from RJNT Reporting Station
Scattered Clouds Scattered Clouds  
Wind Chill: 73°   Ceiling: Unl
Heat Index: 73°   Visibility: 6mi
Dew Point: 50°   Wind: 3mph
Humidity: 44%   Direction: 200°SSW
Pressure: 30.06"   Gusts: NA
Location:  37.12°N, 138.25°E
Report Text: RJNT 260100Z 20003KT 150V300 9999 FEW040 SCT/// 23/10 Q1018
Loading
Personal Weather Stations






























Interactive Weather Map
Tropical Storm Tracking
New forecast layout! Learn more

10-Day Weather Forecast

Advertisements
Track Severe Weather on mobile